Time;durP1;ratioP1;P1;durP2;ratioP2;P2;SDS_P1;SDS_P2;PMS_P1;PMS_P2;Temp;Humidity;BMP_temperature;BMP_pressure;BME280_temperature;BME280_humidity;BME280_pressure;Samples;Min_cycle;Max_cycle;Signal;HPM_P1;HPM_P2
2021/10/12 00:01:44;;;;;;;3.78;1.42;;;12.80;83.40;;;;;;5049504;28;20036;-72
2021/10/12 00:04:09;;;;;;;5.78;1.30;;;12.80;83.50;;;;;;5049440;28;20068;-72
2021/10/12 00:06:35;;;;;;;5.63;1.52;;;12.70;83.50;;;;;;5049335;28;20030;-72
2021/10/12 00:09:02;;;;;;;4.97;1.42;;;12.80;83.60;;;;;;5033849;28;20029;-71
2021/10/12 00:11:27;;;;;;;3.85;1.10;;;12.80;83.60;;;;;;5033796;28;20048;-71
2021/10/12 00:13:53;;;;;;;3.85;1.35;;;12.70;83.60;;;;;;5049199;28;20055;-72
2021/10/12 00:16:19;;;;;;;4.47;1.38;;;12.70;83.70;;;;;;5049072;28;20506;-71
2021/10/12 00:18:45;;;;;;;4.57;1.50;;;12.70;83.70;;;;;;5033667;28;20022;-72
2021/10/12 00:21:12;;;;;;;4.50;1.42;;;12.70;83.70;;;;;;5048989;28;20075;-73
2021/10/12 00:23:38;;;;;;;2.97;1.20;;;12.70;83.80;;;;;;5049012;28;20017;-72
2021/10/12 00:26:03;;;;;;;4.65;1.20;;;12.70;83.90;;;;;;5033742;28;20028;-73
2021/10/12 00:28:30;;;;;;;5.38;1.50;;;12.70;83.90;;;;;;5033572;28;20025;-72
2021/10/12 00:30:57;;;;;;;3.97;1.23;;;12.70;84.00;;;;;;5048931;28;20041;-72
2021/10/12 00:33:22;;;;;;;5.82;1.33;;;12.70;84.00;;;;;;5033546;28;20021;-72
2021/10/12 00:35:48;;;;;;;4.38;1.70;;;12.70;84.00;;;;;;5048913;28;20021;-73
2021/10/12 00:38:14;;;;;;;3.17;1.20;;;12.70;84.10;;;;;;5033502;28;20021;-72
2021/10/12 00:40:40;;;;;;;5.93;1.40;;;12.60;84.10;;;;;;5048727;28;20110;-72
2021/10/12 00:43:05;;;;;;;5.88;1.40;;;12.60;84.20;;;;;;5047955;28;20152;-73
2021/10/12 00:45:32;;;;;;;5.32;1.55;;;12.60;84.20;;;;;;5048656;28;20017;-72
2021/10/12 00:47:59;;;;;;;5.85;1.30;;;12.60;84.30;;;;;;5033232;28;20017;-72
2021/10/12 00:50:27;;;;;;;3.22;1.23;;;12.60;84.30;;;;;;5048494;28;20374;-73
2021/10/12 00:52:53;;;;;;;7.38;1.50;;;12.60;84.30;;;;;;5048570;28;20032;-72
2021/10/12 00:55:19;;;;;;;6.13;1.40;;;12.60;84.40;;;;;;5048535;28;20022;-72
2021/10/12 00:57:45;;;;;;;4.85;1.55;;;12.60;84.50;;;;;;5048601;28;20381;-72
2021/10/12 01:00:11;;;;;;;6.15;1.30;;;12.60;84.50;;;;;;5048338;28;20079;-73
2021/10/12 01:02:37;;;;;;;4.22;1.67;;;12.60;84.60;;;;;;5048374;28;20224;-71
2021/10/12 01:05:05;;;;;;;5.97;1.50;;;12.60;84.60;;;;;;5048312;28;20021;-71
2021/10/12 01:07:31;;;;;;;3.53;1.45;;;12.60;84.60;;;;;;5048202;28;20078;-72
2021/10/12 01:09:56;;;;;;;5.05;1.35;;;12.60;84.60;;;;;;5048183;28;20533;-72
2021/10/12 01:12:23;;;;;;;3.83;1.58;;;12.60;84.70;;;;;;5032994;28;20103;-71
2021/10/12 01:14:49;;;;;;;6.55;1.65;;;12.60;84.80;;;;;;5032865;28;20382;-73
2021/10/12 01:20:37;;;;;;;5.53;1.48;;;12.50;84.90;;;;;;5020898;28;20052;-72
2021/10/12 01:23:03;;;;;;;5.78;1.38;;;12.50;84.80;;;;;;5048131;28;20033;-72
2021/10/12 01:25:29;;;;;;;8.55;1.95;;;12.50;84.90;;;;;;5032825;28;20057;-72
2021/10/12 01:27:54;;;;;;;5.22;1.55;;;12.50;85.00;;;;;;5048198;28;20025;-72
2021/10/12 01:30:20;;;;;;;5.05;1.77;;;12.50;85.10;;;;;;5048111;28;20018;-72
2021/10/12 01:32:46;;;;;;;4.80;1.35;;;12.50;85.10;;;;;;5032777;28;20079;-72
2021/10/12 01:35:14;;;;;;;4.50;1.90;;;12.50;85.20;;;;;;5048027;28;20029;-73
2021/10/12 01:37:40;;;;;;;5.00;1.98;;;12.50;85.40;;;;;;5047939;28;20026;-72
2021/10/12 01:40:08;;;;;;;8.02;2.00;;;12.40;85.30;;;;;;5047954;28;20117;-72
2021/10/12 01:42:34;;;;;;;6.25;2.30;;;12.40;85.40;;;;;;5032516;28;20038;-71
2021/10/12 01:45:01;;;;;;;6.32;2.42;;;12.50;85.50;;;;;;5047927;28;20442;-72
2021/10/12 01:47:28;;;;;;;6.57;2.30;;;12.50;85.50;;;;;;5047925;28;20469;-72
2021/10/12 01:49:54;;;;;;;6.15;2.40;;;12.50;85.50;;;;;;5032587;28;20389;-72
2021/10/12 01:52:20;;;;;;;6.07;2.28;;;12.40;86.10;;;;;;5032503;28;20401;-73
2021/10/12 01:54:46;;;;;;;4.90;2.45;;;12.40;85.60;;;;;;5051555;28;20032;-72
2021/10/12 01:57:12;;;;;;;5.63;2.53;;;12.40;85.80;;;;;;5036631;28;20474;-71
2021/10/12 01:59:38;;;;;;;5.47;2.47;;;12.40;85.80;;;;;;5051850;28;20030;-72
2021/10/12 02:02:04;;;;;;;6.22;2.42;;;12.40;85.90;;;;;;5036432;28;20030;-73
2021/10/12 02:04:31;;;;;;;4.82;2.45;;;12.30;85.80;;;;;;5051745;28;20055;-73
2021/10/12 02:06:57;;;;;;;7.60;2.70;;;12.30;85.90;;;;;;5051588;28;20060;-72
2021/10/12 02:09:23;;;;;;;4.63;2.25;;;12.30;86.00;;;;;;5036478;28;20029;-72
2021/10/12 02:11:49;;;;;;;4.90;2.30;;;12.30;86.10;;;;;;5051608;28;20145;-71
2021/10/12 02:17:36;;;;;;;6.00;2.40;;;12.30;86.20;;;;;;5036489;28;20531;-71
2021/10/12 02:20:04;;;;;;;6.25;2.50;;;12.30;86.10;;;;;;5051406;28;20029;-71
2021/10/12 02:22:30;;;;;;;8.05;2.53;;;12.30;86.10;;;;;;5035998;28;20116;-71
2021/10/12 02:24:56;;;;;;;6.65;2.25;;;12.30;86.10;;;;;;5051423;28;20052;-72
2021/10/12 02:27:22;;;;;;;6.57;2.28;;;12.30;86.10;;;;;;5035999;28;20026;-72
2021/10/12 02:29:49;;;;;;;6.43;2.22;;;12.30;86.10;;;;;;5051313;28;20036;-72
2021/10/12 02:32:15;;;;;;;4.18;2.05;;;12.30;86.10;;;;;;5051197;28;20053;-72
2021/10/12 02:34:40;;;;;;;5.93;2.20;;;12.30;86.20;;;;;;5051061;28;20069;-72
2021/10/12 02:37:06;;;;;;;7.75;2.33;;;12.30;86.10;;;;;;5051075;28;20045;-72
2021/10/12 02:39:32;;;;;;;9.73;2.63;;;12.30;86.10;;;;;;5050945;28;20554;-72
2021/10/12 02:41:57;;;;;;;4.35;2.10;;;12.30;86.10;;;;;;5050849;28;20029;-71
2021/10/12 02:44:23;;;;;;;3.63;1.65;;;12.30;86.00;;;;;;5050733;28;20033;-70
2021/10/12 02:46:49;;;;;;;6.50;1.95;;;12.30;86.00;;;;;;5050752;28;20033;-70
2021/10/12 02:49:15;;;;;;;4.03;1.70;;;12.20;86.00;;;;;;5050724;28;20021;-71
2021/10/12 02:51:40;;;;;;;4.47;1.75;;;12.20;86.00;;;;;;5050714;28;20087;-70
2021/10/12 02:54:06;;;;;;;4.57;1.75;;;12.20;86.00;;;;;;5050761;28;20068;-73
2021/10/12 02:56:32;;;;;;;7.53;1.70;;;12.20;86.00;;;;;;5050727;28;20028;-72
2021/10/12 02:59:00;;;;;;;5.57;1.70;;;12.20;86.00;;;;;;5050659;28;20033;-72
2021/10/12 03:01:26;;;;;;;5.82;1.65;;;12.20;86.00;;;;;;5035263;28;20095;-72
2021/10/12 03:03:51;;;;;;;6.20;1.45;;;12.20;86.00;;;;;;5035265;28;20021;-72
2021/10/12 03:06:17;;;;;;;4.13;1.25;;;12.20;86.00;;;;;;5049673;28;20164;-72
2021/10/12 03:08:43;;;;;;;6.72;1.67;;;12.20;86.10;;;;;;5050534;28;20053;-71
2021/10/12 03:11:09;;;;;;;8.65;1.70;;;12.20;86.00;;;;;;5035215;28;20026;-71
2021/10/12 03:13:34;;;;;;;6.15;1.73;;;12.20;86.00;;;;;;5050258;28;20029;-71
2021/10/12 03:16:00;;;;;;;4.25;1.40;;;12.20;86.00;;;;;;5050275;28;20196;-71
2021/10/12 03:18:29;;;;;;;4.22;1.50;;;12.10;85.90;;;;;;5034944;28;20022;-71
2021/10/12 03:20:55;;;;;;;5.95;1.30;;;12.10;85.90;;;;;;5034555;28;20048;-72
2021/10/12 03:23:21;;;;;;;3.53;1.30;;;12.10;85.90;;;;;;5050223;28;20025;-72
2021/10/12 03:25:46;;;;;;;3.13;1.20;;;12.10;85.90;;;;;;5050099;28;20109;-72
2021/10/12 03:28:12;;;;;;;3.80;1.17;;;12.20;85.90;;;;;;5050129;28;20101;-71
2021/10/12 03:30:37;;;;;;;4.03;1.13;;;12.20;85.90;;;;;;5034714;28;20022;-71
2021/10/12 03:33:04;;;;;;;3.33;1.10;;;12.20;85.80;;;;;;5049993;28;20030;-71
2021/10/12 03:35:33;;;;;;;3.03;1.00;;;12.20;85.80;;;;;;5049909;28;20088;-72
2021/10/12 03:37:59;;;;;;;2.38;0.93;;;12.20;85.80;;;;;;5050173;28;20029;-71
2021/10/12 03:40:25;;;;;;;6.18;1.08;;;12.20;86.30;;;;;;5049741;28;20028;-71
2021/10/12 03:42:51;;;;;;;3.33;1.00;;;12.20;85.70;;;;;;5034339;28;20087;-71
2021/10/12 03:45:16;;;;;;;3.63;1.00;;;12.10;85.60;;;;;;5049812;28;20014;-71
2021/10/12 03:47:42;;;;;;;5.35;1.10;;;12.10;85.70;;;;;;5049775;28;20028;-72
2021/10/12 03:50:08;;;;;;;7.10;1.10;;;12.10;85.70;;;;;;5034502;28;20044;-71
2021/10/12 03:52:34;;;;;;;5.25;1.27;;;12.10;85.70;;;;;;5034275;28;20033;-71
2021/10/12 03:54:59;;;;;;;3.53;1.00;;;12.10;85.80;;;;;;5049503;28;20032;-72
2021/10/12 03:57:25;;;;;;;2.95;1.00;;;12.10;85.80;;;;;;5049558;28;20030;-72
2021/10/12 03:59:53;;;;;;;2.00;0.90;;;12.10;85.80;;;;;;5049450;28;20116;-71
2021/10/12 04:02:19;;;;;;;5.22;1.30;;;12.10;85.80;;;;;;5049407;28;20120;-71
2021/10/12 04:04:44;;;;;;;4.10;1.08;;;12.10;85.80;;;;;;5034102;28;20052;-72
2021/10/12 04:07:10;;;;;;;5.68;1.35;;;12.10;85.80;;;;;;5049394;28;20026;-72
2021/10/12 04:09:36;;;;;;;3.00;1.15;;;12.10;85.90;;;;;;5034061;28;20101;-71
2021/10/12 04:12:01;;;;;;;3.42;1.08;;;12.10;86.00;;;;;;5049286;28;20061;-71
2021/10/12 04:14:27;;;;;;;3.13;1.00;;;12.00;86.00;;;;;;5049328;28;20481;-71
2021/10/12 04:16:52;;;;;;;4.32;1.30;;;12.00;86.00;;;;;;5033768;28;20385;-71
2021/10/12 04:19:18;;;;;;;3.28;1.27;;;12.00;86.00;;;;;;5033937;28;20232;-71
2021/10/12 04:21:43;;;;;;;3.15;0.98;;;12.00;86.10;;;;;;5033522;28;20371;-71
2021/10/12 04:24:09;;;;;;;4.88;1.30;;;11.90;86.10;;;;;;5049110;28;20068;-72
2021/10/12 04:26:37;;;;;;;4.60;1.42;;;11.90;86.20;;;;;;5049131;28;20051;-72
2021/10/12 04:29:03;;;;;;;2.28;1.00;;;11.90;86.20;;;;;;5049064;28;20013;-72
2021/10/12 04:31:28;;;;;;;4.18;1.27;;;11.90;86.30;;;;;;5048922;28;20034;-72
2021/10/12 04:33:54;;;;;;;5.07;1.27;;;11.90;86.30;;;;;;5033434;28;20107;-72
2021/10/12 04:36:20;;;;;;;3.97;1.35;;;11.90;86.30;;;;;;5048670;28;20091;-74
2021/10/12 04:38:45;;;;;;;5.05;1.55;;;11.90;86.30;;;;;;5033440;28;20048;-72
2021/10/12 04:41:11;;;;;;;1.77;1.00;;;11.90;86.30;;;;;;5048552;28;20108;-72
2021/10/12 04:43:40;;;;;;;6.03;1.70;;;11.90;86.30;;;;;;5048684;28;20384;-72
2021/10/12 04:46:05;;;;;;;4.97;1.52;;;12.00;86.30;;;;;;5033221;28;20112;-72
2021/10/12 04:48:31;;;;;;;2.78;1.63;;;12.00;86.30;;;;;;5048576;28;20105;-71
2021/10/12 04:50:57;;;;;;;4.15;1.27;;;12.00;86.30;;;;;;5033233;28;20040;-73
2021/10/12 04:53:23;;;;;;;4.78;1.52;;;12.00;86.20;;;;;;5048456;28;20390;-72
2021/10/12 04:55:49;;;;;;;4.45;1.48;;;12.00;86.30;;;;;;5048555;28;20059;-70
2021/10/12 04:58:14;;;;;;;3.90;1.20;;;12.00;86.30;;;;;;5048452;28;20168;-71
2021/10/12 05:00:40;;;;;;;4.13;1.20;;;12.00;86.30;;;;;;5048321;28;20339;-71
2021/10/12 05:03:06;;;;;;;2.47;1.10;;;12.00;86.40;;;;;;5048210;28;20053;-71
2021/10/12 05:05:32;;;;;;;3.67;1.30;;;12.00;86.40;;;;;;5048268;28;20025;-72
2021/10/12 05:07:57;;;;;;;4.20;1.10;;;12.10;86.40;;;;;;5048241;28;20236;-71
2021/10/12 05:10:23;;;;;;;2.85;1.23;;;12.10;86.50;;;;;;5048199;28;20134;-71
2021/10/12 05:12:50;;;;;;;5.07;1.45;;;12.10;86.50;;;;;;5032909;28;20541;-71
2021/10/12 05:15:22;;;;;;;5.05;1.60;;;12.10;86.50;;;;;;5048162;28;20021;-71
2021/10/12 05:17:48;;;;;;;2.83;1.35;;;12.10;86.50;;;;;;5048199;28;20339;-73
2021/10/12 05:20:15;;;;;;;4.97;1.55;;;12.10;86.50;;;;;;5048037;28;20132;-73
2021/10/12 05:22:41;;;;;;;3.72;1.45;;;12.10;86.60;;;;;;5048016;28;20060;-72
2021/10/12 05:25:06;;;;;;;4.00;1.48;;;12.10;86.70;;;;;;5048137;28;20018;-71
2021/10/12 05:27:33;;;;;;;5.05;1.50;;;12.10;86.70;;;;;;5032468;28;20057;-72
2021/10/12 05:29:59;;;;;;;3.10;1.33;;;12.10;86.80;;;;;;5048148;28;20021;-73
2021/10/12 05:32:24;;;;;;;3.08;1.10;;;12.00;86.70;;;;;;5048448;28;20029;-71
2021/10/12 05:34:50;;;;;;;4.10;1.58;;;12.00;86.70;;;;;;5047929;28;20025;-72
2021/10/12 05:37:16;;;;;;;5.53;1.52;;;12.10;86.80;;;;;;5032665;28;20033;-72
2021/10/12 05:39:41;;;;;;;4.07;1.65;;;12.00;86.90;;;;;;5047888;28;20026;-72
2021/10/12 05:42:07;;;;;;;5.20;1.80;;;12.00;86.90;;;;;;5032530;28;20022;-72
2021/10/12 05:44:33;;;;;;;3.28;1.50;;;12.00;86.90;;;;;;5047865;28;20567;-72
2021/10/12 05:46:59;;;;;;;4.18;2.08;;;12.00;87.00;;;;;;5032461;28;20087;-72
2021/10/12 05:49:24;;;;;;;3.97;1.50;;;12.00;87.00;;;;;;5047777;28;20017;-72
2021/10/12 05:51:50;;;;;;;4.57;1.45;;;12.00;87.10;;;;;;5032302;28;20022;-72
2021/10/12 05:54:18;;;;;;;5.03;2.05;;;12.00;87.10;;;;;;5032467;28;20022;-72
2021/10/12 05:57:34;;;;;;;4.88;1.58;;;12.10;87.10;;;;;;5048284;28;20034;-73
2021/10/12 05:59:34;;;;;;;4.35;2.10;;;12.10;87.20;;;;;;5034710;28;20533;-72
2021/10/12 06:02:00;;;;;;;3.45;1.73;;;12.10;87.10;;;;;;5047513;28;20021;-72
2021/10/12 06:04:26;;;;;;;3.58;2.08;;;12.10;87.10;;;;;;5047708;28;20389;-73
2021/10/12 06:06:54;;;;;;;3.38;1.70;;;12.10;87.20;;;;;;5047389;28;20014;-71
2021/10/12 06:09:19;;;;;;;4.00;1.75;;;12.10;87.20;;;;;;5047460;28;20029;-71
2021/10/12 06:11:45;;;;;;;4.88;2.05;;;12.10;87.10;;;;;;5047464;28;20017;-72
2021/10/12 06:14:11;;;;;;;5.68;2.40;;;12.10;87.30;;;;;;5032190;28;20104;-72
2021/10/12 06:16:36;;;;;;;4.95;2.17;;;12.20;87.30;;;;;;5047491;28;20032;-73
2021/10/12 06:19:02;;;;;;;6.07;2.13;;;12.20;87.30;;;;;;5032163;28;20100;-72
2021/10/12 06:21:28;;;;;;;5.28;2.63;;;12.10;87.30;;;;;;5031973;28;20041;-73
2021/10/12 06:23:53;;;;;;;3.40;2.60;;;12.20;87.40;;;;;;5032237;28;20028;-72
2021/10/12 06:26:19;;;;;;;4.90;2.78;;;12.20;87.40;;;;;;5034585;28;20025;-72
2021/10/12 06:28:44;;;;;;;5.55;3.22;;;12.20;87.40;;;;;;5047188;28;20052;-71
2021/10/12 06:31:10;;;;;;;5.13;3.00;;;12.20;87.40;;;;;;5031947;28;20434;-72
2021/10/12 06:33:36;;;;;;;7.57;3.28;;;12.20;87.40;;;;;;5047237;28;20032;-72
2021/10/12 06:36:02;;;;;;;5.20;3.70;;;12.20;87.50;;;;;;5047392;28;20511;-72
2021/10/12 06:38:28;;;;;;;5.40;3.53;;;12.20;87.60;;;;;;5047325;28;20029;-73
2021/10/12 06:40:53;;;;;;;7.40;3.70;;;12.20;87.70;;;;;;5033911;28;20045;-72
2021/10/12 06:43:19;;;;;;;6.63;3.75;;;12.20;87.70;;;;;;5048009;28;20037;-72
2021/10/12 06:45:45;;;;;;;5.70;3.30;;;12.20;87.70;;;;;;5037445;28;20054;-71
2021/10/12 06:48:10;;;;;;;6.80;3.35;;;12.30;87.70;;;;;;5050790;28;20032;-71
2021/10/12 06:50:36;;;;;;;5.00;3.10;;;12.30;87.80;;;;;;5035286;28;20516;-70
2021/10/12 06:53:03;;;;;;;6.43;3.80;;;12.30;87.70;;;;;;5050659;28;20480;-72
2021/10/12 06:55:29;;;;;;;6.43;3.95;;;12.30;87.70;;;;;;5047752;28;20130;-73
2021/10/12 06:57:54;;;;;;;7.22;3.70;;;12.30;87.70;;;;;;5050713;28;20021;-71
2021/10/12 07:00:21;;;;;;;5.55;3.90;;;12.40;87.80;;;;;;5050637;28;20021;-72
2021/10/12 07:02:47;;;;;;;7.60;4.28;;;12.40;87.80;;;;;;5035123;28;20044;-72
2021/10/12 07:05:15;;;;;;;7.20;4.40;;;12.40;87.70;;;;;;5050578;28;20067;-71
2021/10/12 07:07:41;;;;;;;5.18;4.03;;;12.40;87.70;;;;;;5035089;28;20028;-73
2021/10/12 07:10:08;;;;;;;4.90;3.95;;;12.40;87.70;;;;;;5050552;28;20018;-72
2021/10/12 07:12:34;;;;;;;6.35;3.72;;;12.50;87.80;;;;;;5050507;28;20029;-72
2021/10/12 07:15:00;;;;;;;5.40;3.60;;;12.50;87.80;;;;;;5050354;28;20028;-71
2021/10/12 07:17:26;;;;;;;6.63;3.78;;;12.50;87.80;;;;;;5035023;28;20022;-72
2021/10/12 07:19:52;;;;;;;7.55;4.88;;;12.60;87.70;;;;;;5050163;28;20030;-72
2021/10/12 07:22:23;;;;;;;6.68;5.00;;;12.50;87.80;;;;;;5049945;28;20061;-73
2021/10/12 07:24:50;;;;;;;5.53;3.55;;;12.60;87.90;;;;;;5034630;28;20032;-73
2021/10/12 07:27:16;;;;;;;5.65;3.60;;;12.60;87.90;;;;;;5050118;28;20482;-72
2021/10/12 07:29:41;;;;;;;5.15;3.08;;;12.60;87.90;;;;;;5049888;28;20026;-71
2021/10/12 07:32:07;;;;;;;6.68;3.00;;;12.60;87.90;;;;;;5034761;28;20041;-74
2021/10/12 07:34:33;;;;;;;5.10;3.10;;;12.60;88.00;;;;;;5050067;28;20021;-72
2021/10/12 07:36:58;;;;;;;5.03;2.95;;;12.60;88.00;;;;;;5034616;28;20108;-73
2021/10/12 07:39:24;;;;;;;5.68;2.97;;;12.60;88.00;;;;;;5050013;28;20029;-73
2021/10/12 07:41:50;;;;;;;5.20;3.20;;;12.60;88.10;;;;;;5049673;28;20040;-72
2021/10/12 07:44:15;;;;;;;5.55;3.08;;;12.60;88.10;;;;;;5049681;28;20024;-73
2021/10/12 07:46:41;;;;;;;3.40;2.60;;;12.60;88.10;;;;;;5049721;28;20026;-72
2021/10/12 07:49:06;;;;;;;3.90;2.90;;;12.70;88.10;;;;;;5049573;28;20025;-72
2021/10/12 07:51:32;;;;;;;4.63;2.97;;;12.70;88.20;;;;;;5049138;28;20026;-72
2021/10/12 07:54:00;;;;;;;3.33;2.53;;;12.70;88.10;;;;;;5049525;28;20120;-72
2021/10/12 07:56:36;;;;;;;5.28;2.83;;;12.70;88.10;;;;;;5034164;28;20056;-72
2021/10/12 07:59:07;;;;;;;5.25;2.72;;;12.80;88.10;;;;;;5034081;28;20055;-72
2021/10/12 08:01:33;;;;;;;4.97;2.80;;;12.90;88.10;;;;;;5049246;28;20481;-71
2021/10/12 08:04:00;;;;;;;6.32;2.50;;;12.90;88.10;;;;;;5049329;28;20032;-73
2021/10/12 08:06:26;;;;;;;6.63;3.10;;;12.90;88.20;;;;;;5049346;28;20025;-73
2021/10/12 08:08:52;;;;;;;6.53;2.70;;;12.90;88.10;;;;;;5049326;28;20481;-72
2021/10/12 08:11:24;;;;;;;3.22;2.45;;;12.90;88.10;;;;;;5049276;28;20078;-73
2021/10/12 08:13:52;;;;;;;4.18;2.58;;;12.90;88.20;;;;;;5049110;28;20074;-73
2021/10/12 08:16:24;;;;;;;6.50;2.70;;;12.90;88.20;;;;;;5049226;28;20033;-73
2021/10/12 08:18:49;;;;;;;4.18;2.67;;;13.00;88.30;;;;;;5033861;28;20105;-73
2021/10/12 08:21:15;;;;;;;5.43;2.95;;;13.00;88.30;;;;;;5048961;28;20248;-73
2021/10/12 08:23:40;;;;;;;5.82;3.05;;;13.10;88.30;;;;;;5033823;28;20052;-73
2021/10/12 08:26:06;;;;;;;5.40;2.88;;;13.10;88.20;;;;;;5033556;28;20017;-73
2021/10/12 08:28:32;;;;;;;4.68;2.83;;;13.20;88.10;;;;;;5049100;28;20104;-74
2021/10/12 08:30:58;;;;;;;6.68;2.80;;;13.20;88.00;;;;;;5033748;28;20453;-73
2021/10/12 08:33:23;;;;;;;4.40;2.60;;;13.20;88.00;;;;;;5048983;28;20061;-73
2021/10/12 08:35:49;;;;;;;5.53;2.80;;;13.20;88.80;;;;;;5033705;28;20032;-74
2021/10/12 08:38:19;;;;;;;4.90;2.50;;;13.20;88.30;;;;;;5048954;28;20060;-72
2021/10/12 08:40:45;;;;;;;4.30;2.20;;;13.10;88.30;;;;;;5048518;28;20377;-75
2021/10/12 08:43:11;;;;;;;7.75;2.22;;;13.10;88.40;;;;;;5048750;28;20025;-74
2021/10/12 08:45:39;;;;;;;4.18;2.10;;;13.10;88.60;;;;;;5048548;28;20017;-73
2021/10/12 08:48:06;;;;;;;2.58;2.15;;;13.10;88.60;;;;;;5048557;28;20022;-73
2021/10/12 08:50:33;;;;;;;3.58;2.20;;;13.10;88.70;;;;;;5048542;28;20402;-74
2021/10/12 08:52:59;;;;;;;3.00;1.60;;;13.00;88.80;;;;;;5033254;28;20022;-74
2021/10/12 08:55:28;;;;;;;4.13;1.60;;;13.00;88.90;;;;;;5048641;28;20071;-73
2021/10/12 08:57:54;;;;;;;4.50;1.40;;;13.00;88.90;;;;;;5048557;28;20029;-73
2021/10/12 09:00:21;;;;;;;2.70;1.40;;;13.00;89.00;;;;;;5032942;28;20171;-73
2021/10/12 09:06:02;;;;;;;5.88;1.80;;;13.00;89.00;;;;;;5033227;28;20472;-74
2021/10/12 09:11:53;;;;;;;2.50;1.27;;;13.00;89.00;;;;;;5033304;28;20047;-73
2021/10/12 09:14:18;;;;;;;1.65;1.10;;;13.00;89.00;;;;;;5048480;28;20026;-73
2021/10/12 09:16:44;;;;;;;2.30;1.38;;;13.00;89.00;;;;;;5048435;28;20033;-73
2021/10/12 09:19:17;;;;;;;4.25;1.60;;;13.00;89.10;;;;;;5033176;28;20036;-74
2021/10/12 09:21:49;;;;;;;3.83;1.70;;;13.10;89.20;;;;;;5048031;28;20111;-74
2021/10/12 09:24:23;;;;;;;3.00;1.70;;;13.20;89.20;;;;;;5032050;28;20140;-74
2021/10/12 09:26:50;;;;;;;;;;;13.20;89.10;;;;;;5048665;28;20022;-73
2021/10/12 09:29:38;;;;;;;2.95;1.95;;;13.30;89.00;;;;;;5033021;28;19955;-73
2021/10/12 09:32:05;;;;;;;2.53;2.00;;;13.30;88.90;;;;;;5048058;28;20104;-73
2021/10/12 09:34:31;;;;;;;2.42;2.00;;;13.40;88.80;;;;;;5048101;28;20049;-73
2021/10/12 09:36:58;;;;;;;3.13;2.30;;;13.40;88.70;;;;;;5032818;28;20049;-73
2021/10/12 09:42:58;;;;;;;2.70;2.30;;;13.60;88.60;;;;;;5032729;28;20076;-74
2021/10/12 09:45:39;;;;;;;2.72;2.30;;;13.70;88.50;;;;;;5032638;28;20026;-72
2021/10/12 09:48:27;;;;;;;3.60;2.53;;;13.70;88.50;;;;;;5048250;28;20075;-73
2021/10/12 09:51:13;;;;;;;3.80;2.45;;;13.70;88.40;;;;;;5047999;28;20025;-72
2021/10/12 09:53:41;;;;;;;5.13;2.53;;;13.80;88.40;;;;;;5047944;28;20345;-73
2021/10/12 09:56:08;;;;;;;3.72;2.58;;;13.90;88.40;;;;;;5047789;28;20481;-73
2021/10/12 09:58:34;;;;;;;4.03;2.60;;;13.80;88.30;;;;;;5032318;28;20025;-73
2021/10/12 10:01:02;;;;;;;3.65;2.28;;;13.90;88.50;;;;;;5032481;28;20055;-72
2021/10/12 10:03:29;;;;;;;5.45;2.67;;;13.90;89.10;;;;;;5047641;28;20453;-74
2021/10/12 10:05:59;;;;;;;3.92;2.40;;;14.00;88.40;;;;;;5047817;28;20017;-73
2021/10/12 10:08:29;;;;;;;3.22;2.20;;;14.10;88.40;;;;;;5032515;28;20311;-73
2021/10/12 10:10:56;;;;;;;4.22;2.25;;;14.20;88.10;;;;;;5047737;28;20025;-74
2021/10/12 10:13:22;;;;;;;2.53;1.80;;;14.30;87.80;;;;;;5047646;28;20064;-73
2021/10/12 10:15:49;;;;;;;4.25;2.00;;;14.50;87.60;;;;;;5035960;28;20026;-73
2021/10/12 10:18:18;;;;;;;2.30;1.50;;;14.50;87.40;;;;;;5051418;28;20020;-72
2021/10/12 10:20:50;;;;;;;2.53;1.52;;;14.60;87.30;;;;;;5035952;28;20501;-72
2021/10/12 10:23:48;;;;;;;2.80;1.70;;;14.60;87.10;;;;;;5051401;28;20029;-72
2021/10/12 10:26:27;;;;;;;2.80;1.20;;;14.60;87.00;;;;;;5034341;28;20612;-73
2021/10/12 10:28:55;;;;;;;3.67;1.50;;;14.60;87.00;;;;;;5051290;28;20129;-72
2021/10/12 10:31:38;;;;;;;2.40;1.20;;;14.60;87.10;;;;;;5051269;28;20401;-72
2021/10/12 10:34:42;;;;;;;1.20;0.90;;;14.60;87.10;;;;;;5035948;28;20033;-72
2021/10/12 10:37:17;;;;;;;1.00;0.90;;;14.60;87.10;;;;;;5051148;28;20025;-72
2021/10/12 10:39:48;;;;;;;3.97;1.23;;;14.80;86.80;;;;;;5051216;28;20505;-73
2021/10/12 10:42:25;;;;;;;2.92;1.10;;;15.00;86.60;;;;;;5051000;28;20092;-72
2021/10/12 10:45:02;;;;;;;2.85;1.35;;;15.10;86.30;;;;;;5051076;28;20026;-73
2021/10/12 10:47:47;;;;;;;1.38;0.70;;;15.10;86.00;;;;;;5051058;28;20120;-73
2021/10/12 10:50:15;;;;;;;1.65;0.90;;;15.10;86.00;;;;;;5050790;28;20025;-74
2021/10/12 10:52:45;;;;;;;0.90;0.55;;;15.10;86.00;;;;;;5035623;28;20041;-72
2021/10/12 10:55:18;;;;;;;2.42;0.88;;;15.10;85.90;;;;;;5035374;28;20039;-73
2021/10/12 10:58:13;;;;;;;2.80;0.98;;;15.00;85.90;;;;;;5035433;28;20036;-74
2021/10/12 11:00:40;;;;;;;3.15;0.95;;;14.90;86.10;;;;;;5033685;28;20051;-74
2021/10/12 11:03:07;;;;;;;2.22;0.93;;;14.80;86.10;;;;;;5050591;28;20026;-74
2021/10/12 11:05:43;;;;;;;1.70;0.77;;;14.80;86.20;;;;;;5050584;28;20026;-73
2021/10/12 11:08:20;;;;;;;1.45;0.70;;;14.90;86.10;;;;;;5050576;28;20183;-73
2021/10/12 11:10:48;;;;;;;2.95;0.90;;;15.00;86.20;;;;;;5035168;28;20064;-73
2021/10/12 11:13:32;;;;;;;1.83;0.70;;;15.10;85.80;;;;;;5035291;28;20147;-73
2021/10/12 11:15:58;;;;;;;1.23;0.55;;;15.20;85.40;;;;;;5050514;28;20116;-74
2021/10/12 11:18:23;;;;;;;1.63;0.65;;;15.20;85.10;;;;;;5050618;28;20541;-72
2021/10/12 11:20:53;;;;;;;1.23;0.60;;;15.30;85.00;;;;;;5034905;28;20563;-73
2021/10/12 11:23:28;;;;;;;1.23;0.50;;;15.30;84.90;;;;;;5050737;28;20112;-73
2021/10/12 11:25:55;;;;;;;1.75;0.60;;;15.40;84.80;;;;;;5049592;28;20030;-73
2021/10/12 11:28:24;;;;;;;2.20;0.65;;;15.40;84.50;;;;;;5034989;28;20028;-73
2021/10/12 11:30:49;;;;;;;1.52;0.40;;;15.30;84.30;;;;;;5034928;28;20029;-72
2021/10/12 11:33:15;;;;;;;1.98;0.50;;;15.20;84.40;;;;;;5050172;28;20363;-72
2021/10/12 11:35:42;;;;;;;0.93;0.30;;;15.20;84.60;;;;;;5050029;28;20548;-73
2021/10/12 11:38:08;;;;;;;1.35;0.50;;;15.20;84.50;;;;;;5034414;28;20033;-72
2021/10/12 11:40:35;;;;;;;0.60;0.30;;;15.30;84.30;;;;;;5047084;28;20034;-72
2021/10/12 11:43:03;;;;;;;0.85;0.35;;;15.20;84.30;;;;;;5034653;28;20040;-72
2021/10/12 11:45:31;;;;;;;0.52;0.20;;;15.20;84.20;;;;;;5034622;28;20080;-71
2021/10/12 11:47:57;;;;;;;0.50;0.28;;;15.20;84.20;;;;;;5049830;28;20025;-72
2021/10/12 11:50:23;;;;;;;0.82;0.30;;;15.20;84.20;;;;;;5049822;28;20018;-73
2021/10/12 11:52:54;;;;;;;0.77;0.25;;;15.30;83.80;;;;;;5034480;28;20037;-73
2021/10/12 11:55:27;;;;;;;1.95;0.30;;;15.20;83.20;;;;;;5049572;28;20030;-72
2021/10/12 11:57:52;;;;;;;0.55;0.35;;;15.20;82.70;;;;;;5049685;28;20025;-73
2021/10/12 12:00:39;;;;;;;0.70;0.30;;;15.10;82.30;;;;;;5034518;28;20191;-72
2021/10/12 12:03:15;;;;;;;1.27;0.60;;;15.10;82.60;;;;;;5049475;28;20401;-71
2021/10/12 12:05:55;;;;;;;0.45;0.20;;;15.10;82.60;;;;;;5049261;28;20029;-72
2021/10/12 12:08:22;;;;;;;1.15;0.32;;;15.10;82.40;;;;;;5034151;28;20397;-72
2021/10/12 12:10:49;;;;;;;0.65;0.35;;;15.20;82.20;;;;;;5034140;28;20022;-72
2021/10/12 12:13:15;;;;;;;2.13;0.40;;;15.20;81.90;;;;;;5049248;28;20033;-73
2021/10/12 12:15:41;;;;;;;1.42;0.80;;;15.30;81.70;;;;;;5049335;28;20041;-73
2021/10/12 12:18:17;;;;;;;0.88;0.40;;;15.30;81.70;;;;;;5033873;28;20021;-71
2021/10/12 12:20:53;;;;;;;2.22;0.55;;;15.40;81.20;;;;;;5033627;28;20101;-72
2021/10/12 12:23:40;;;;;;;3.85;0.40;;;15.40;80.90;;;;;;5049137;28;20413;-72
2021/10/12 12:26:10;;;;;;;0.70;0.20;;;15.50;80.50;;;;;;5033918;28;20116;-72
2021/10/12 12:28:35;;;;;;;0.65;0.30;;;15.50;80.30;;;;;;5033753;28;20083;-72
2021/10/12 12:31:21;;;;;;;1.33;0.40;;;15.50;79.90;;;;;;5049066;28;20029;-74
2021/10/12 12:33:48;;;;;;;1.13;0.40;;;15.50;79.40;;;;;;5033655;28;20057;-72
2021/10/12 12:36:15;;;;;;;0.85;0.30;;;15.50;78.90;;;;;;5033654;28;20056;-71
2021/10/12 12:38:42;;;;;;;2.65;0.55;;;15.50;79.10;;;;;;5048000;28;20366;-72
2021/10/12 12:41:22;;;;;;;1.95;0.40;;;15.40;78.50;;;;;;5033407;28;20112;-73
2021/10/12 12:43:56;;;;;;;2.72;0.32;;;15.30;78.60;;;;;;5048690;28;20083;-71
2021/10/12 12:46:22;;;;;;;2.83;0.47;;;15.30;78.50;;;;;;5048629;28;20025;-72
2021/10/12 12:49:11;;;;;;;1.48;0.40;;;15.20;78.70;;;;;;5048856;28;20045;-73
2021/10/12 12:51:46;;;;;;;0.22;0.22;;;15.20;78.30;;;;;;5047240;28;20037;-72
2021/10/12 12:54:33;;;;;;;2.05;0.52;;;15.20;78.60;;;;;;5033337;28;20027;-72
2021/10/12 12:57:09;;;;;;;1.85;0.60;;;15.10;78.20;;;;;;5033391;28;20060;-72
2021/10/12 12:59:35;;;;;;;2.72;0.40;;;15.00;78.00;;;;;;5033110;28;20103;-72
2021/10/12 13:02:01;;;;;;;3.13;0.50;;;14.90;77.90;;;;;;5048416;28;20473;-73
2021/10/12 13:04:26;;;;;;;2.22;0.47;;;14.80;77.70;;;;;;5032899;28;20045;-72
2021/10/12 13:06:52;;;;;;;3.20;0.73;;;14.70;77.30;;;;;;5048570;28;20017;-72
2021/10/12 13:09:17;;;;;;;2.47;0.50;;;14.80;77.90;;;;;;5048362;28;20059;-73